Time;durP1;ratioP1;P1;durP2;ratioP2;P2;SDS_P1;SDS_P2;PMS_P1;PMS_P2;Temp;Humidity;BMP_temperature;BMP_pressure;BME280_temperature;BME280_humidity;BME280_pressure;Samples;Min_cycle;Max_cycle;Signal;HPM_P1;HPM_P2
2023/04/26 00:01:52;;;;;;;;;;;4.60;99.90;;;;;;5068409;28;19975;-77
2023/04/26 00:04:18;;;;;;;;;;;4.60;99.90;;;;;;5064797;28;19964;-78
2023/04/26 00:06:44;;;;;;;;;;;4.50;99.90;;;;;;5071757;28;20026;-76
2023/04/26 00:09:10;;;;;;;;;;;4.50;99.90;;;;;;5053468;28;20289;-76
2023/04/26 00:11:35;;;;;;;;;;;4.50;99.90;;;;;;5054125;28;19929;-76
2023/04/26 00:14:01;;;;;;;;;;;4.50;99.90;;;;;;5050524;28;19946;-76
2023/04/26 00:16:26;;;;;;;;;;;4.50;99.90;;;;;;5059577;28;19927;-76
2023/04/26 00:18:53;;;;;;;;;;;4.50;99.90;;;;;;5068014;28;19926;-77
2023/04/26 00:21:18;;;;;;;;;;;4.60;99.90;;;;;;5071570;28;20011;-77
2023/04/26 00:23:44;;;;;;;;;;;4.60;99.90;;;;;;5056047;28;20039;-77
2023/04/26 00:26:10;;;;;;;;;;;4.40;99.90;;;;;;5068328;28;20373;-76
2023/04/26 00:28:35;;;;;;;;;;;4.50;99.90;;;;;;5066887;28;19924;-77
2023/04/26 00:31:01;;;;;;;;;;;4.30;99.90;;;;;;5060829;28;19925;-76
2023/04/26 00:33:27;;;;;;;;;;;4.40;99.90;;;;;;5049565;28;19925;-77
2023/04/26 00:35:52;;;;;;;;;;;4.30;99.90;;;;;;5050937;28;19947;-76
2023/04/26 00:38:18;;;;;;;;;;;4.20;99.90;;;;;;5051339;28;19925;-76
2023/04/26 00:40:43;;;;;;;;;;;4.20;99.90;;;;;;5048919;28;19925;-76
2023/04/26 00:43:09;;;;;;;;;;;4.20;99.90;;;;;;5058497;28;19924;-76
2023/04/26 00:45:35;;;;;;;;;;;4.40;99.90;;;;;;5070012;28;20403;-76
2023/04/26 00:48:02;;;;;;;;;;;4.20;99.90;;;;;;5050500;28;20237;-76
2023/04/26 00:50:28;;;;;;;;;;;4.20;99.90;;;;;;5065615;28;20333;-77
2023/04/26 00:52:54;;;;;;;;;;;4.20;99.90;;;;;;5073242;28;19924;-77
2023/04/26 00:55:21;;;;;;;;;;;4.20;99.90;;;;;;5069578;28;19928;-76
2023/04/26 00:57:47;;;;;;;;;;;4.20;99.90;;;;;;5086429;28;19928;-76
2023/04/26 01:00:13;;;;;;;;;;;4.30;99.90;;;;;;5067874;28;19924;-76
2023/04/26 01:02:40;;;;;;;;;;;4.20;99.90;;;;;;5066766;28;20373;-77
2023/04/26 01:05:05;;;;;;;;;;;4.20;99.90;;;;;;5070482;28;19924;-76
2023/04/26 01:07:32;;;;;;;;;;;4.20;99.90;;;;;;5053761;28;19921;-77
2023/04/26 01:09:58;;;;;;;;;;;4.30;99.90;;;;;;5066312;28;19920;-77
2023/04/26 01:12:24;;;;;;;;;;;4.40;99.90;;;;;;5051352;28;20007;-77
2023/04/26 01:14:50;;;;;;;;;;;4.40;99.90;;;;;;5077757;28;20453;-77
2023/04/26 01:17:16;;;;;;;;;;;4.70;99.90;;;;;;5071020;28;19928;-76
2023/04/26 01:19:48;;;;;;;;;;;4.50;99.90;;;;;;5069122;28;20377;-76
2023/04/26 01:22:13;;;;;;;;;;;4.60;99.90;;;;;;5087598;28;19931;-76
2023/04/26 01:24:41;;;;;;;;;;;4.90;99.90;;;;;;5068488;28;19921;-76
2023/04/26 01:27:06;;;;;;;;;;;4.70;99.90;;;;;;5069779;28;19926;-76
2023/04/26 01:29:32;;;;;;;;;;;4.70;99.90;;;;;;5061856;28;19924;-76
2023/04/26 01:31:58;;;;;;;;;;;4.70;99.90;;;;;;5054635;28;20011;-76
2023/04/26 01:34:23;;;;;;;;;;;4.70;99.90;;;;;;5067344;28;19920;-76
2023/04/26 01:36:49;;;;;;;;;;;4.60;99.90;;;;;;5069629;28;19924;-76
2023/04/26 01:39:14;;;;;;;;;;;4.60;99.90;;;;;;5069490;28;19920;-76
2023/04/26 01:41:40;;;;;;;;;;;4.50;99.90;;;;;;5068249;28;19920;-76
2023/04/26 01:44:06;;;;;;;;;;;4.50;99.90;;;;;;5068277;28;19935;-76
2023/04/26 01:46:31;;;;;;;;;;;4.50;99.90;;;;;;5055007;28;19931;-76
2023/04/26 01:48:57;;;;;;;;;;;4.50;99.90;;;;;;5048548;28;20408;-76
2023/04/26 01:51:22;;;;;;;;;;;4.50;99.90;;;;;;5051098;28;20011;-76
2023/04/26 01:53:48;;;;;;;;;;;4.50;99.90;;;;;;5067230;28;20421;-76
2023/04/26 01:56:14;;;;;;;;;;;4.50;99.90;;;;;;5049781;28;19920;-76
2023/04/26 01:58:40;;;;;;;;;;;4.60;99.90;;;;;;5064084;28;20416;-76
2023/04/26 02:01:07;;;;;;;;;;;4.30;99.90;;;;;;5061282;28;19925;-76
2023/04/26 02:03:33;;;;;;;;;;;4.30;99.90;;;;;;5048113;28;19921;-76
2023/04/26 02:05:59;;;;;;;;;;;4.30;99.90;;;;;;5049472;28;20385;-76
2023/04/26 02:08:24;;;;;;;;;;;4.30;99.90;;;;;;5059032;28;19925;-77
2023/04/26 02:10:50;;;;;;;;;;;4.30;99.90;;;;;;5032975;28;20342;-76
2023/04/26 02:13:15;;;;;;;;;;;4.20;99.90;;;;;;5049180;28;19936;-76
2023/04/26 02:15:44;;;;;;;;;;;4.20;99.90;;;;;;5051597;28;19982;-76
2023/04/26 02:18:10;;;;;;;;;;;4.20;99.90;;;;;;5053702;28;19970;-76
2023/04/26 02:20:36;;;;;;;;;;;4.20;99.90;;;;;;5048312;28;20015;-76
2023/04/26 02:23:02;;;;;;;;;;;4.20;99.90;;;;;;5050992;28;19927;-76
2023/04/26 02:25:27;;;;;;;;;;;4.20;99.90;;;;;;5057437;28;19925;-76
2023/04/26 02:27:53;;;;;;;;;;;4.30;99.90;;;;;;5069039;28;20503;-76
2023/04/26 02:30:19;;;;;;;;;;;4.20;99.90;;;;;;5067281;28;19929;-76
2023/04/26 02:32:44;;;;;;;;;;;4.20;99.90;;;;;;5054304;28;20014;-76
2023/04/26 02:35:10;;;;;;;;;;;4.30;99.90;;;;;;5069135;28;20011;-76
2023/04/26 02:37:36;;;;;;;;;;;4.50;99.90;;;;;;5061816;28;19925;-76
2023/04/26 02:40:04;;;;;;;;;;;4.50;99.90;;;;;;5048932;28;19920;-76
2023/04/26 02:42:29;;;;;;;;;;;4.40;99.90;;;;;;5063164;28;19963;-76
2023/04/26 02:44:55;;;;;;;;;;;4.80;99.90;;;;;;5052553;28;20016;-76
2023/04/26 02:47:21;;;;;;;;;;;4.50;99.90;;;;;;5068329;28;19927;-76
2023/04/26 02:49:46;;;;;;;;;;;4.70;99.90;;;;;;5068476;28;19939;-76
2023/04/26 02:52:12;;;;;;;;;;;4.60;99.90;;;;;;5057128;28;19920;-76
2023/04/26 02:54:37;;;;;;;;;;;4.60;99.90;;;;;;5067502;28;20339;-76
2023/04/26 02:57:03;;;;;;;;;;;4.60;99.90;;;;;;5069439;28;19924;-76
2023/04/26 02:59:29;;;;;;;;;;;4.70;99.90;;;;;;5068851;28;20392;-76
2023/04/26 03:01:54;;;;;;;;;;;4.80;99.90;;;;;;5068639;28;19960;-76
2023/04/26 03:04:20;;;;;;;;;;;4.90;99.90;;;;;;5033183;28;19924;-76
2023/04/26 03:06:45;;;;;;;;;;;5.00;99.90;;;;;;5049927;28;19929;-76
2023/04/26 03:09:11;;;;;;;;;;;5.00;99.90;;;;;;5048120;28;20328;-76
2023/04/26 03:11:36;;;;;;;;;;;5.00;99.90;;;;;;5058229;28;20004;-76
2023/04/26 03:14:02;;;;;;;;;;;5.00;99.90;;;;;;5069068;28;20369;-76
2023/04/26 03:16:28;;;;;;;;;;;5.00;99.90;;;;;;5069064;28;19943;-76
2023/04/26 03:18:53;;;;;;;;;;;5.00;99.90;;;;;;5057733;28;20269;-76
2023/04/26 03:21:19;;;;;;;;;;;4.90;99.90;;;;;;5054041;28;19986;-76
2023/04/26 03:23:45;;;;;;;;;;;4.80;99.90;;;;;;5084821;28;20504;-76
2023/04/26 03:26:11;;;;;;;;;;;4.90;99.90;;;;;;5052531;28;19925;-76
2023/04/26 03:28:37;;;;;;;;;;;4.80;99.90;;;;;;5071745;28;19931;-76
2023/04/26 03:31:02;;;;;;;;;;;4.80;99.90;;;;;;5089049;28;19924;-76
2023/04/26 03:33:29;;;;;;;;;;;4.80;99.90;;;;;;5053592;28;20421;-77
2023/04/26 03:35:55;;;;;;;;;;;4.70;99.90;;;;;;5082372;28;19916;-76
2023/04/26 03:38:21;;;;;;;;;;;4.70;99.90;;;;;;5068216;28;19931;-76
2023/04/26 03:40:46;;;;;;;;;;;4.70;99.90;;;;;;5034800;28;19928;-76
2023/04/26 03:43:12;;;;;;;;;;;4.70;99.90;;;;;;5052067;28;20278;-76
2023/04/26 03:45:37;;;;;;;;;;;4.70;99.90;;;;;;5051855;28;19921;-76
2023/04/26 03:48:03;;;;;;;;;;;4.60;99.90;;;;;;5070289;28;19920;-76
2023/04/26 03:50:29;;;;;;;;;;;4.60;99.90;;;;;;5071856;28;20308;-76
2023/04/26 03:52:55;;;;;;;;;;;4.40;99.90;;;;;;5070850;28;19930;-76
2023/04/26 03:55:20;;;;;;;;;;;4.40;99.90;;;;;;5054319;28;20297;-76
2023/04/26 03:57:47;;;;;;;;;;;4.30;99.90;;;;;;5069436;28;19928;-76
2023/04/26 04:00:13;;;;;;;;;;;4.30;99.90;;;;;;5078759;28;19970;-76
2023/04/26 04:02:39;;;;;;;;;;;4.20;99.90;;;;;;5071106;28;19920;-76
2023/04/26 04:05:04;;;;;;;;;;;4.30;99.90;;;;;;5071110;28;19928;-76
2023/04/26 04:07:31;;;;;;;;;;;4.20;99.90;;;;;;5077564;28;19921;-76
2023/04/26 04:09:58;;;;;;;;;;;4.30;99.90;;;;;;5060303;28;19928;-76
2023/04/26 04:12:23;;;;;;;;;;;4.30;99.90;;;;;;5088521;28;20011;-76
2023/04/26 04:14:49;;;;;;;;;;;4.60;99.90;;;;;;5071182;28;20337;-76
2023/04/26 04:17:15;;;;;;;;;;;4.40;99.90;;;;;;5067118;28;19928;-76
2023/04/26 04:19:41;;;;;;;;;;;4.30;99.90;;;;;;5050670;28;20386;-76
2023/04/26 04:22:06;;;;;;;;;;;4.50;99.90;;;;;;5051714;28;19927;-76
2023/04/26 04:24:32;;;;;;;;;;;4.30;99.90;;;;;;5054668;28;19921;-76
2023/04/26 04:26:59;;;;;;;;;;;4.10;99.90;;;;;;5079732;28;19928;-76
2023/04/26 04:29:25;;;;;;;;;;;4.00;99.90;;;;;;5070930;28;19920;-76
2023/04/26 04:31:51;;;;;;;;;;;4.00;99.90;;;;;;5050329;28;19986;-76
2023/04/26 04:34:16;;;;;;;;;;;3.90;99.90;;;;;;5050579;28;20413;-76
2023/04/26 04:36:42;;;;;;;;;;;3.90;99.90;;;;;;5054139;28;19920;-76
2023/04/26 04:39:12;;;;;;;;;;;3.80;99.90;;;;;;5086792;28;19921;-76
2023/04/26 04:41:38;;;;;;;;;;;3.80;99.90;;;;;;5088371;28;20280;-76
2023/04/26 04:44:04;;;;;;;;;;;3.90;99.90;;;;;;5086294;28;20373;-76
2023/04/26 04:46:30;;;;;;;;;;;3.90;99.90;;;;;;5070945;28;19927;-75
2023/04/26 04:48:55;;;;;;;;;;;3.80;99.90;;;;;;5031760;28;20397;-76
2023/04/26 04:51:21;;;;;;;;;;;3.80;99.90;;;;;;5050975;28;19920;-75
2023/04/26 04:53:46;;;;;;;;;;;3.70;99.90;;;;;;5043619;28;19920;-76
2023/04/26 04:56:13;;;;;;;;;;;3.70;99.90;;;;;;5070743;28;20007;-75
2023/04/26 04:58:38;;;;;;;;;;;3.70;99.90;;;;;;5058502;28;19924;-76
2023/04/26 05:01:04;;;;;;;;;;;3.80;99.90;;;;;;5049621;28;20255;-77
2023/04/26 05:03:30;;;;;;;;;;;3.80;99.90;;;;;;5089568;28;19977;-76
2023/04/26 05:05:56;;;;;;;;;;;3.90;99.90;;;;;;5090682;28;19928;-76
2023/04/26 05:08:21;;;;;;;;;;;4.00;99.90;;;;;;5064067;28;20356;-75
2023/04/26 05:10:47;;;;;;;;;;;3.90;99.90;;;;;;5064096;28;20011;-76
2023/04/26 05:13:12;;;;;;;;;;;3.90;99.90;;;;;;5054109;28;20362;-76
2023/04/26 05:15:38;;;;;;;;;;;3.90;99.90;;;;;;5082705;28;19944;-76
2023/04/26 05:18:04;;;;;;;;;;;3.80;99.90;;;;;;5050169;28;19920;-76
2023/04/26 05:20:30;;;;;;;;;;;3.80;99.90;;;;;;5070221;28;19924;-75
2023/04/26 05:22:55;;;;;;;;;;;3.70;99.90;;;;;;5055584;28;19921;-76
2023/04/26 05:25:21;;;;;;;;;;;3.70;99.90;;;;;;5049946;28;20428;-76
2023/04/26 05:27:47;;;;;;;;;;;3.80;99.90;;;;;;5050138;28;19925;-76
2023/04/26 05:30:12;;;;;;;;;;;3.80;99.90;;;;;;5050500;28;19975;-76
2023/04/26 05:32:38;;;;;;;;;;;3.80;99.90;;;;;;5063470;28;19981;-76
2023/04/26 05:35:04;;;;;;;;;;;3.90;99.90;;;;;;5060633;28;19928;-76
2023/04/26 05:37:30;;;;;;;;;;;3.90;99.90;;;;;;5050346;28;20378;-76
2023/04/26 05:39:56;;;;;;;;;;;4.00;99.90;;;;;;5049189;28;19936;-76
2023/04/26 05:42:21;;;;;;;;;;;4.00;99.90;;;;;;5053070;28;19924;-76
2023/04/26 05:44:47;;;;;;;;;;;4.10;99.90;;;;;;5069409;28;20323;-76
2023/04/26 05:47:12;;;;;;;;;;;4.10;99.90;;;;;;5070773;28;19920;-76
2023/04/26 05:49:38;;;;;;;;;;;4.20;99.90;;;;;;5068891;28;19971;-75
2023/04/26 05:52:04;;;;;;;;;;;4.20;99.90;;;;;;5068873;28;19965;-76
2023/04/26 05:54:29;;;;;;;;;;;4.30;99.90;;;;;;5068697;28;19924;-75
2023/04/26 05:56:55;;;;;;;;;;;4.30;99.90;;;;;;5068856;28;19924;-76
2023/04/26 05:59:21;;;;;;;;;;;4.40;99.90;;;;;;5070318;28;19931;-76
2023/04/26 06:01:46;;;;;;;;;;;4.50;99.90;;;;;;5069608;28;19932;-78
2023/04/26 06:04:12;;;;;;;;;;;4.50;99.90;;;;;;5069296;28;19943;-75
2023/04/26 06:06:37;;;;;;;;;;;4.50;99.90;;;;;;5070933;28;19920;-77
2023/04/26 06:09:03;;;;;;;;;;;4.60;99.90;;;;;;5066961;28;19924;-77
2023/04/26 06:11:29;;;;;;;;;;;4.70;99.90;;;;;;5085229;28;20280;-72
2023/04/26 06:13:54;;;;;;;;;;;4.80;99.90;;;;;;5064822;28;19986;-71
2023/04/26 06:16:21;;;;;;;;;;;5.20;99.90;;;;;;5070111;28;19928;-72
2023/04/26 06:18:46;;;;;;;;;;;5.00;99.90;;;;;;5068697;28;19928;-74
2023/04/26 06:21:12;;;;;;;;;;;5.10;99.90;;;;;;5069504;28;20035;-71
2023/04/26 06:23:37;;;;;;;;;;;5.10;99.90;;;;;;5070584;28;19978;-72
2023/04/26 06:26:03;;;;;;;;;;;5.20;99.90;;;;;;5070057;28;20023;-71
2023/04/26 06:28:29;;;;;;;;;;;5.20;99.90;;;;;;5069828;28;19920;-71
2023/04/26 06:30:54;;;;;;;;;;;5.30;99.90;;;;;;5071398;28;20016;-72
2023/04/26 06:33:20;;;;;;;;;;;5.40;99.90;;;;;;5051127;28;19925;-74
2023/04/26 06:35:45;;;;;;;;;;;5.50;99.90;;;;;;5069485;28;19931;-71
2023/04/26 06:38:11;;;;;;;;;;;5.50;99.90;;;;;;5070327;28;19921;-71
2023/04/26 06:40:37;;;;;;;;;;;5.50;99.90;;;;;;5085947;28;19977;-72
2023/04/26 06:43:03;;;;;;;;;;;5.50;99.90;;;;;;5085949;28;19931;-71
2023/04/26 06:45:28;;;;;;;;;;;5.60;99.90;;;;;;5063073;28;19924;-72
2023/04/26 06:47:54;;;;;;;;;;;5.60;99.90;;;;;;5069545;28;19925;-71
2023/04/26 06:50:20;;;;;;;;;;;5.60;99.90;;;;;;5069038;28;19920;-72
2023/04/26 06:52:45;;;;;;;;;;;5.60;99.90;;;;;;5056865;28;20389;-71
2023/04/26 06:55:11;;;;;;;;;;;5.70;99.90;;;;;;5049350;28;19917;-72
2023/04/26 06:57:36;;;;;;;;;;;5.70;99.90;;;;;;5050850;28;19920;-72
2023/04/26 07:00:03;;;;;;;;;;;5.60;99.90;;;;;;5062771;28;19928;-72
2023/04/26 07:02:28;;;;;;;;;;;5.70;99.90;;;;;;5053991;28;19920;-71
2023/04/26 07:04:54;;;;;;;;;;;5.70;99.90;;;;;;5053253;28;19920;-72
2023/04/26 07:07:20;;;;;;;;;;;5.80;99.90;;;;;;5072750;28;19927;-71
2023/04/26 07:09:46;;;;;;;;;;;5.90;99.90;;;;;;5073468;28;19928;-71
2023/04/26 07:12:11;;;;;;;;;;;5.90;99.90;;;;;;5072152;28;19927;-72
2023/04/26 07:14:42;;;;;;;;;;;5.90;99.90;;;;;;5072198;28;19924;-71
2023/04/26 07:17:08;;;;;;;;;;;6.00;99.90;;;;;;5072410;28;20415;-73
2023/04/26 07:19:34;;;;;;;;;;;5.90;99.90;;;;;;5073638;28;20011;-79
2023/04/26 07:22:00;;;;;;;;;;;6.00;99.90;;;;;;5073022;28;20027;-78
2023/04/26 07:24:25;;;;;;;;;;;6.10;99.90;;;;;;5071343;28;19920;-79
2023/04/26 07:26:51;;;;;;;;;;;6.20;99.90;;;;;;5072762;28;19926;-79
2023/04/26 07:29:20;;;;;;;;;;;6.40;99.90;;;;;;5072952;28;20284;-73
2023/04/26 07:31:46;;;;;;;;;;;6.50;99.90;;;;;;5073183;28;19925;-73
2023/04/26 07:34:11;;;;;;;;;;;6.50;99.90;;;;;;5069999;28;19930;-74
2023/04/26 07:36:37;;;;;;;;;;;6.50;99.90;;;;;;5081478;28;19971;-74
2023/04/26 07:39:04;;;;;;;;;;;6.50;99.90;;;;;;5067715;28;19925;-75
2023/04/26 07:41:30;;;;;;;;;;;6.60;99.90;;;;;;5105883;28;19924;-74
2023/04/26 07:43:55;;;;;;;;;;;6.60;99.90;;;;;;5077560;28;19930;-77
2023/04/26 07:46:21;;;;;;;;;;;6.60;99.90;;;;;;5091285;28;20292;-74
2023/04/26 07:48:46;;;;;;;;;;;6.70;99.90;;;;;;5091492;28;19977;-74
2023/04/26 07:51:12;;;;;;;;;;;6.70;99.90;;;;;;5091155;28;19920;-75
2023/04/26 07:53:38;;;;;;;;;;;6.70;99.90;;;;;;5088396;28;20361;-74
2023/04/26 07:56:05;;;;;;;;;;;6.80;99.90;;;;;;5080534;28;19921;-74
2023/04/26 07:58:31;;;;;;;;;;;6.90;99.90;;;;;;5071469;28;19928;-73
2023/04/26 08:00:57;;;;;;;;;;;6.90;99.90;;;;;;5082227;28;19924;-74
2023/04/26 08:03:23;;;;;;;;;;;7.00;99.90;;;;;;5077064;28;20643;-72
2023/04/26 08:05:49;;;;;;;;;;;7.00;99.90;;;;;;5092433;28;19931;-74
2023/04/26 08:08:14;;;;;;;;;;;7.10;99.90;;;;;;5090513;28;19924;-74
2023/04/26 08:10:40;;;;;;;;;;;7.20;99.90;;;;;;5092140;28;19919;-74
2023/04/26 08:13:06;;;;;;;;;;;7.20;99.90;;;;;;5091557;28;20293;-74
2023/04/26 08:15:31;;;;;;;;;;;7.30;99.90;;;;;;5093284;28;19927;-74
2023/04/26 08:17:57;;;;;;;;;;;7.30;99.90;;;;;;5092149;28;19920;-74
2023/04/26 08:20:22;;;;;;;;;;;7.40;99.90;;;;;;5092114;28;19963;-73
2023/04/26 08:22:48;;;;;;;;;;;7.50;99.90;;;;;;5075620;28;19928;-74
2023/04/26 08:25:14;;;;;;;;;;;7.60;99.90;;;;;;5091605;28;20292;-73
2023/04/26 08:27:40;;;;;;;;;;;7.50;99.90;;;;;;5086121;28;19924;-74
2023/04/26 08:30:06;;;;;;;;;;;7.60;99.90;;;;;;5091492;28;19924;-74
2023/04/26 08:32:32;;;;;;;;;;;7.60;99.90;;;;;;5079694;28;19927;-74
2023/04/26 08:34:59;;;;;;;;;;;7.60;99.90;;;;;;5090982;28;19923;-74
2023/04/26 08:37:24;;;;;;;;;;;7.60;99.90;;;;;;5108070;28;19942;-73
2023/04/26 08:39:50;;;;;;;;;;;7.60;99.90;;;;;;5089558;28;20366;-74
2023/04/26 08:42:16;;;;;;;;;;;7.70;99.90;;;;;;5087605;28;19928;-74
2023/04/26 08:44:42;;;;;;;;;;;7.70;99.90;;;;;;5072463;28;19924;-72
2023/04/26 08:47:18;;;;;;;;;;;7.80;99.90;;;;;;5089897;28;20002;-72
2023/04/26 08:49:51;;;;;;;;;;;7.80;99.90;;;;;;5071454;28;19928;-74
2023/04/26 08:52:21;;;;;;;;;;;7.90;99.90;;;;;;5070754;28;19920;-72
2023/04/26 08:54:52;;;;;;;;;;;7.80;99.90;;;;;;5071057;28;20250;-72
2023/04/26 08:57:18;;;;;;;;;;;7.90;99.90;;;;;;5070598;28;19920;-73
2023/04/26 08:59:45;;;;;;;;;;;7.90;99.90;;;;;;5071304;28;20270;-72
2023/04/26 09:02:13;;;;;;;;;;;8.00;99.90;;;;;;5070667;28;19920;-72
2023/04/26 09:04:38;;;;;;;;;;;8.00;99.90;;;;;;5069830;28;20352;-73
2023/04/26 09:07:06;;;;;;;;;;;8.10;99.90;;;;;;5071613;28;20016;-76
2023/04/26 09:09:36;;;;;;;;;;;8.10;99.90;;;;;;5071232;28;19927;-72
2023/04/26 09:12:03;;;;;;;;;;;8.20;99.90;;;;;;5070418;28;19925;-72
2023/04/26 09:14:29;;;;;;;;;;;8.20;99.90;;;;;;5067364;28;19920;-72
2023/04/26 09:16:55;;;;;;;;;;;8.20;99.90;;;;;;5070094;28;19975;-73
2023/04/26 09:19:37;;;;;;;;;;;8.20;99.90;;;;;;5068635;28;19921;-73
2023/04/26 09:22:03;;;;;;;;;;;8.20;99.90;;;;;;5071010;28;19924;-75
2023/04/26 09:24:45;;;;;;;;;;;8.10;99.90;;;;;;5047527;28;19970;-75
2023/04/26 09:27:11;;;;;;;;;;;8.00;99.90;;;;;;5068817;28;19927;-75
2023/04/26 09:29:37;;;;;;;;;;;7.90;99.90;;;;;;5067518;28;19920;-75
2023/04/26 09:32:02;;;;;;;;;;;7.80;99.90;;;;;;5052752;28;20623;-75
2023/04/26 09:34:29;;;;;;;;;;;7.70;99.90;;;;;;5069559;28;20004;-75
2023/04/26 09:36:55;;;;;;;;;;;7.70;99.90;;;;;;5071074;28;19920;-75
2023/04/26 09:39:31;;;;;;;;;;;7.60;99.90;;;;;;5068231;28;19920;-75
2023/04/26 09:41:57;;;;;;;;;;;7.60;99.90;;;;;;5070801;28;19957;-75
2023/04/26 09:44:23;;;;;;;;;;;7.60;99.90;;;;;;5062353;28;19924;-73
2023/04/26 09:47:11;;;;;;;;;;;7.60;99.90;;;;;;5049775;28;19943;-73
2023/04/26 09:49:47;;;;;;;;;;;7.60;99.90;;;;;;5065918;28;20377;-75
2023/04/26 09:52:13;;;;;;;;;;;7.70;99.90;;;;;;5067678;28;20029;-77
2023/04/26 09:54:41;;;;;;;;;;;7.80;99.90;;;;;;5067396;28;19982;-75
2023/04/26 09:57:07;;;;;;;;;;;7.80;99.90;;;;;;5059952;28;19932;-75
2023/04/26 09:59:43;;;;;;;;;;;7.90;99.90;;;;;;5084519;28;20025;-75
2023/04/26 10:02:15;;;;;;;;;;;8.00;99.90;;;;;;5060799;28;19924;-75
2023/04/26 10:04:43;;;;;;;;;;;8.00;99.90;;;;;;5061951;28;19925;-75
2023/04/26 10:07:08;;;;;;;;;;;8.10;99.90;;;;;;5091644;28;19943;-76
2023/04/26 10:09:34;;;;;;;;;;;8.10;99.90;;;;;;5088531;28;20381;-75
2023/04/26 10:12:00;;;;;;;;;;;8.20;99.90;;;;;;5070311;28;19974;-75
2023/04/26 10:14:26;;;;;;;;;;;8.20;99.90;;;;;;5040850;28;19924;-76
2023/04/26 10:16:53;;;;;;;;;;;8.40;99.90;;;;;;5060462;28;19921;-75
2023/04/26 10:19:20;;;;;;;;;;;8.40;99.90;;;;;;5083145;28;19927;-75
2023/04/26 10:21:47;;;;;;;;;;;8.40;99.90;;;;;;5089715;28;19924;-75
2023/04/26 10:24:13;;;;;;;;;;;8.50;99.90;;;;;;5064622;28;19921;-76
2023/04/26 10:26:50;;;;;;;;;;;8.50;99.90;;;;;;5067184;28;20300;-75
2023/04/26 10:29:16;;;;;;;;;;;8.60;99.90;;;;;;5075337;28;20373;-76
2023/04/26 10:32:03;;;;;;;;;;;8.70;99.90;;;;;;5085069;28;19925;-75
2023/04/26 10:34:30;;;;;;;;;;;8.70;99.90;;;;;;5084797;28;19927;-75
2023/04/26 10:37:15;;;;;;;;;;;8.80;99.90;;;;;;5091174;28;19982;-75
2023/04/26 10:39:45;;;;;;;;;;;8.80;99.90;;;;;;5093204;28;19920;-75
2023/04/26 10:42:26;;;;;;;;;;;9.00;99.90;;;;;;5094263;28;19938;-75
2023/04/26 10:44:53;;;;;;;;;;;9.00;99.90;;;;;;5085011;28;19971;-74
2023/04/26 10:47:32;;;;;;;;;;;9.10;99.90;;;;;;5080385;28;19924;-75
2023/04/26 10:50:06;;;;;;;;;;;9.10;99.90;;;;;;5069130;28;20354;-71
2023/04/26 10:52:32;;;;;;;;;;;9.20;99.90;;;;;;5073308;28;19928;-74
2023/04/26 10:54:58;;;;;;;;;;;9.40;99.90;;;;;;5078541;28;19999;-75
2023/04/26 10:57:42;;;;;;;;;;;9.40;99.90;;;;;;5071945;28;19935;-75
2023/04/26 11:00:11;;;;;;;;;;;9.30;99.90;;;;;;5080836;28;19928;-75
2023/04/26 11:02:43;;;;;;;;;;;9.30;99.90;;;;;;5061074;28;19953;-75
2023/04/26 11:05:09;;;;;;;;;;;9.30;99.90;;;;;;5093335;28;19990;-75
2023/04/26 11:07:35;;;;;;;;;;;9.30;99.90;;;;;;5085025;28;20387;-75
2023/04/26 11:10:01;;;;;;;;;;;9.30;99.90;;;;;;5072422;28;19924;-75
2023/04/26 11:12:27;;;;;;;;;;;9.10;99.90;;;;;;5085641;28;20376;-75
2023/04/26 11:14:53;;;;;;;;;;;8.90;99.90;;;;;;5071998;28;19924;-74
2023/04/26 11:17:19;;;;;;;;;;;8.70;99.90;;;;;;5088929;28;19960;-74
2023/04/26 11:19:45;;;;;;;;;;;8.50;99.90;;;;;;5091431;28;19984;-75
2023/04/26 11:22:11;;;;;;;;;;;8.30;99.90;;;;;;5092208;28;19993;-75
2023/04/26 11:24:40;;;;;;;;;;;8.20;99.90;;;;;;5090599;28;19920;-75
2023/04/26 11:27:09;;;;;;;;;;;8.20;99.90;;;;;;5093087;28;19924;-75
2023/04/26 11:29:35;;;;;;;;;;;8.10;99.90;;;;;;5079709;28;19923;-75
2023/04/26 11:32:01;;;;;;;;;;;8.10;99.90;;;;;;5073308;28;20369;-75
2023/04/26 11:34:37;;;;;;;;;;;8.00;99.90;;;;;;5071889;28;19968;-75
2023/04/26 11:37:04;;;;;;;;;;;8.00;99.90;;;;;;5054984;28;19920;-75
2023/04/26 11:39:33;;;;;;;;;;;8.00;99.90;;;;;;5070387;28;19920;-74
2023/04/26 11:42:06;;;;;;;;;;;8.00;99.90;;;;;;5072227;28;19927;-75
2023/04/26 11:44:31;;;;;;;;;;;8.00;99.90;;;;;;5077100;28;20003;-81
2023/04/26 11:46:58;;;;;;;;;;;8.00;99.90;;;;;;5070074;28;20011;-75
2023/04/26 11:49:24;;;;;;;;;;;8.10;99.90;;;;;;5070588;28;19924;-76
2023/04/26 11:51:49;;;;;;;;;;;8.10;99.90;;;;;;5070690;28;19924;-74
2023/04/26 11:54:31;;;;;;;;;;;8.20;99.90;;;;;;5071447;28;19931;-72
2023/04/26 11:56:57;;;;;;;;;;;8.20;99.90;;;;;;5071828;28;19925;-82
2023/04/26 11:59:23;;;;;;;;;;;8.30;99.90;;;;;;5053020;28;19925;-75
2023/04/26 12:01:51;;;;;;;;;;;8.40;99.90;;;;;;5072698;28;20369;-75
2023/04/26 12:04:16;;;;;;;;;;;8.50;99.90;;;;;;5068453;28;20001;-75
2023/04/26 12:06:43;;;;;;;;;;;8.70;99.90;;;;;;5066908;28;20369;-75
2023/04/26 12:09:10;;;;;;;;;;;8.70;99.90;;;;;;5066808;28;19931;-75
2023/04/26 12:11:35;;;;;;;;;;;8.90;99.90;;;;;;5053154;28;20448;-75
2023/04/26 12:14:01;;;;;;;;;;;9.00;99.90;;;;;;5052026;28;19920;-75
2023/04/26 12:16:27;;;;;;;;;;;9.10;99.90;;;;;;5052719;28;20366;-75
2023/04/26 12:18:56;;;;;;;;;;;9.40;99.90;;;;;;5050938;28;19921;-74
2023/04/26 12:21:23;;;;;;;;;;;9.90;99.90;;;;;;5071047;28;19920;-74
2023/04/26 12:23:48;;;;;;;;;;;10.20;96.50;;;;;;5051637;28;19924;-75
2023/04/26 12:26:14;;;;;;;;;;;10.30;99.90;;;;;;5053126;28;20388;-75
2023/04/26 12:28:40;;;;;;;;;;;10.80;99.90;;;;;;5052221;28;19931;-74
2023/04/26 12:31:07;;;;;;;;;;;11.20;96.40;;;;;;5052935;28;20286;-75
2023/04/26 12:33:32;;;;;;;;;;;11.50;95.50;;;;;;5051312;28;19932;-75
2023/04/26 12:36:05;;;;;;;;;;;11.60;93.80;;;;;;5052869;28;19924;-75
2023/04/26 12:38:31;;;;;;;;;;;11.50;90.50;;;;;;5068257;28;19948;-75
2023/04/26 12:40:56;;;;;;;;;;;11.40;94.30;;;;;;5071690;28;20381;-74
2023/04/26 12:43:24;;;;;;;;;;;11.20;95.10;;;;;;5071450;28;20329;-75
2023/04/26 12:45:50;;;;;;;;;;;11.00;94.70;;;;;;5072333;28;19920;-75
2023/04/26 12:48:16;;;;;;;;;;;10.70;99.00;;;;;;5070993;28;19970;-74
2023/04/26 12:50:41;;;;;;;;;;;10.60;99.90;;;;;;5050481;28;19927;-74
2023/04/26 12:53:07;;;;;;;;;;;10.40;99.90;;;;;;5052557;28;19920;-74
2023/04/26 12:55:33;;;;;;;;;;;10.10;99.90;;;;;;5049418;28;19921;-75
2023/04/26 12:57:58;;;;;;;;;;;10.00;99.90;;;;;;5066883;28;20284;-73
2023/04/26 13:00:24;;;;;;;;;;;9.90;99.90;;;;;;5068814;28;19928;-74
2023/04/26 13:02:50;;;;;;;;;;;9.80;99.90;;;;;;5082625;28;19966;-76
2023/04/26 13:05:16;;;;;;;;;;;9.80;99.90;;;;;;5063623;28;19975;-76
2023/04/26 13:07:42;;;;;;;;;;;9.70;99.90;;;;;;5069242;28;20324;-75
2023/04/26 13:10:09;;;;;;;;;;;9.70;99.90;;;;;;5068375;28;20285;-75
2023/04/26 13:12:35;;;;;;;;;;;9.60;99.90;;;;;;5069152;28;19932;-76
2023/04/26 13:15:01;;;;;;;;;;;9.50;99.90;;;;;;5076464;28;19920;-75
2023/04/26 13:17:27;;;;;;;;;;;9.40;99.90;;;;;;5068861;28;19966;-76
2023/04/26 13:19:52;;;;;;;;;;;9.30;99.90;;;;;;5068592;28;20388;-76
2023/04/26 13:22:18;;;;;;;;;;;9.30;99.90;;;;;;5067787;28;19930;-76
2023/04/26 13:24:45;;;;;;;;;;;9.10;99.90;;;;;;5051470;28;19924;-76
2023/04/26 13:27:10;;;;;;;;;;;9.10;99.90;;;;;;5075979;28;20347;-77
2023/04/26 13:29:36;;;;;;;;;;;9.00;99.90;;;;;;5077437;28;20015;-77
2023/04/26 13:32:02;;;;;;;;;;;8.90;99.90;;;;;;5089363;28;19947;-76
2023/04/26 13:34:28;;;;;;;;;;;8.90;99.90;;;;;;5076388;28;20032;-76
2023/04/26 13:36:55;;;;;;;;;;;8.90;99.90;;;;;;5086018;28;20019;-76
2023/04/26 13:39:22;;;;;;;;;;;8.90;99.90;;;;;;5091766;28;19920;-76
2023/04/26 13:41:48;;;;;;;;;;;8.90;99.90;;;;;;5102557;28;19920;-76
2023/04/26 13:44:14;;;;;;;;;;;9.00;99.90;;;;;;5079122;28;19920;-76
2023/04/26 13:46:41;;;;;;;;;;;9.00;99.90;;;;;;5068249;28;19927;-76
2023/04/26 13:49:07;;;;;;;;;;;9.10;99.90;;;;;;5067603;28;20304;-76
2023/04/26 13:51:33;;;;;;;;;;;9.10;99.90;;;;;;5068111;28;19924;-77
2023/04/26 13:53:59;;;;;;;;;;;9.10;99.90;;;;;;5068908;28;19924;-76
2023/04/26 13:56:25;;;;;;;;;;;9.20;99.90;;;;;;5069654;28;20384;-76
2023/04/26 13:58:53;;;;;;;;;;;9.20;99.90;;;;;;5068809;28;20392;-76
2023/04/26 14:01:18;;;;;;;;;;;9.30;99.90;;;;;;5070492;28;20312;-75
2023/04/26 14:03:44;;;;;;;;;;;9.30;99.90;;;;;;5066809;28;19932;-76
2023/04/26 14:06:10;;;;;;;;;;;9.40;99.90;;;;;;5069901;28;20061;-75
2023/04/26 14:08:35;;;;;;;;;;;9.40;99.60;;;;;;5069478;28;20399;-77
2023/04/26 14:11:01;;;;;;;;;;;9.40;99.90;;;;;;5068567;28;19927;-75
2023/04/26 14:13:26;;;;;;;;;;;9.40;99.90;;;;;;5068382;28;20450;-76
2023/04/26 14:15:52;;;;;;;;;;;9.50;99.90;;;;;;5050766;28;19931;-75
2023/04/26 14:18:17;;;;;;;;;;;9.60;99.90;;;;;;5056335;28;19921;-76
2023/04/26 14:20:43;;;;;;;;;;;9.70;99.90;;;;;;5069955;28;19920;-76
2023/04/26 14:23:09;;;;;;;;;;;9.70;99.90;;;;;;5068901;28;19927;-76
2023/04/26 14:25:35;;;;;;;;;;;9.90;99.90;;;;;;5066865;28;19928;-76